Time;durP1;ratioP1;P1;durP2;ratioP2;P2;SDS_P1;SDS_P2;PMS_P1;PMS_P2;Temp;Humidity;BMP_temperature;BMP_pressure;BME280_temperature;BME280_humidity;BME280_pressure;Samples;Min_cycle;Max_cycle;Signal;HPM_P1;HPM_P2
2022/05/15 00:02:34;;;;;;;30.83;6.88;;;10.60;99.90;;;;;;5022337;28;20137;-70
2022/05/15 00:05:00;;;;;;;27.35;7.28;;;10.60;99.90;;;;;;5019965;28;20536;-70
2022/05/15 00:07:25;;;;;;;25.35;6.97;;;10.60;99.90;;;;;;5019935;28;20065;-70
2022/05/15 00:09:51;;;;;;;27.33;6.88;;;10.50;99.90;;;;;;5022018;28;20053;-70
2022/05/15 00:12:17;;;;;;;24.58;6.45;;;10.50;99.90;;;;;;5021792;28;20041;-70
2022/05/15 00:14:43;;;;;;;34.22;7.15;;;10.40;99.90;;;;;;5021765;28;20042;-69
2022/05/15 00:17:09;;;;;;;31.35;7.25;;;10.40;99.90;;;;;;5018062;28;20044;-70
2022/05/15 00:19:35;;;;;;;27.52;6.72;;;10.40;99.90;;;;;;5025987;28;20048;-70
2022/05/15 00:22:01;;;;;;;32.28;7.03;;;10.40;99.90;;;;;;5008118;28;20046;-70
2022/05/15 00:24:28;;;;;;;27.67;6.88;;;10.40;99.90;;;;;;5033066;28;20046;-70
2022/05/15 00:26:55;;;;;;;26.38;6.45;;;10.40;99.90;;;;;;5006677;28;20500;-70
2022/05/15 00:29:21;;;;;;;32.67;7.22;;;10.40;99.90;;;;;;5022320;28;20044;-70
2022/05/15 00:31:46;;;;;;;28.55;6.88;;;10.30;99.90;;;;;;5018272;28;20044;-69
2022/05/15 00:34:12;;;;;;;27.52;7.53;;;10.20;99.90;;;;;;5017923;28;20046;-69
2022/05/15 00:36:38;;;;;;;26.17;6.82;;;10.30;99.90;;;;;;5020524;28;20042;-70
2022/05/15 00:39:06;;;;;;;23.23;6.18;;;10.20;99.90;;;;;;5025786;28;20057;-68
2022/05/15 00:41:37;;;;;;;25.88;6.93;;;10.20;99.90;;;;;;5021213;28;20045;-69
2022/05/15 00:44:04;;;;;;;29.20;7.35;;;10.10;99.90;;;;;;5023645;28;20592;-69
2022/05/15 00:46:41;;;;;;;25.38;6.38;;;10.10;99.90;;;;;;5018012;28;20042;-68
2022/05/15 00:49:12;;;;;;;24.80;7.03;;;10.10;99.90;;;;;;5009101;28;20046;-69
2022/05/15 00:51:46;;;;;;;28.40;7.40;;;10.10;99.90;;;;;;5001498;28;20046;-69
2022/05/15 00:54:15;;;;;;;23.55;6.63;;;10.00;99.90;;;;;;5001318;28;20069;-69
2022/05/15 00:56:47;;;;;;;20.33;6.25;;;10.00;99.90;;;;;;5021585;28;20401;-69
2022/05/15 00:59:17;;;;;;;32.28;7.28;;;10.00;99.90;;;;;;5005281;28;20046;-69
2022/05/15 01:01:43;;;;;;;32.38;6.97;;;10.00;99.90;;;;;;5021566;28;20149;-69
2022/05/15 01:04:08;;;;;;;29.63;7.18;;;10.00;99.90;;;;;;5020531;28;20055;-69
2022/05/15 01:06:36;;;;;;;24.23;6.55;;;10.00;99.90;;;;;;5018224;28;20045;-69
2022/05/15 01:09:04;;;;;;;22.10;6.40;;;10.00;99.90;;;;;;5019390;28;20045;-69
2022/05/15 01:11:33;;;;;;;23.77;6.10;;;10.00;99.90;;;;;;5023521;28;20045;-69
2022/05/15 01:13:59;;;;;;;25.60;6.55;;;10.00;99.90;;;;;;5013778;28;20044;-69
2022/05/15 01:16:26;;;;;;;29.42;7.35;;;10.00;99.90;;;;;;5004204;28;20140;-69
2022/05/15 01:18:57;;;;;;;25.42;6.68;;;10.00;99.90;;;;;;5020285;28;20092;-69
2022/05/15 01:21:50;;;;;;;28.90;6.93;;;9.90;99.90;;;;;;5007226;28;20057;-69
2022/05/15 01:24:17;;;;;;;26.02;6.93;;;9.90;99.90;;;;;;5015676;28;20037;-69
2022/05/15 01:26:44;;;;;;;28.35;7.15;;;9.80;99.90;;;;;;5024693;28;20049;-69
2022/05/15 01:29:10;;;;;;;27.25;6.43;;;9.80;99.90;;;;;;5022315;28;20056;-69
2022/05/15 01:31:37;;;;;;;24.63;6.05;;;9.80;99.90;;;;;;5002062;28;20038;-69
2022/05/15 01:34:06;;;;;;;28.00;7.53;;;9.70;99.90;;;;;;5029459;28;20037;-69
2022/05/15 01:36:32;;;;;;;27.23;7.25;;;9.70;99.90;;;;;;5026660;28;20346;-69
2022/05/15 01:38:57;;;;;;;21.98;6.88;;;9.60;99.90;;;;;;5020946;28;20049;-70
2022/05/15 01:41:25;;;;;;;25.02;7.00;;;9.60;99.90;;;;;;5023705;28;20049;-69
2022/05/15 01:43:54;;;;;;;27.50;7.63;;;9.60;99.90;;;;;;5023165;28;20370;-69
2022/05/15 01:46:25;;;;;;;26.08;6.93;;;9.60;99.90;;;;;;5030509;28;20045;-70
2022/05/15 01:48:52;;;;;;;25.17;7.18;;;9.50;99.90;;;;;;5021011;28;20081;-70
2022/05/15 01:51:18;;;;;;;28.95;6.70;;;9.50;99.90;;;;;;5022180;28;20073;-70
2022/05/15 01:53:44;;;;;;;29.15;6.90;;;9.50;99.90;;;;;;5024782;28;20046;-69
2022/05/15 01:56:11;;;;;;;27.75;7.43;;;9.40;99.90;;;;;;5027058;28;20704;-70
2022/05/15 01:58:37;;;;;;;26.70;6.35;;;9.50;99.90;;;;;;5020532;28;20038;-69
2022/05/15 02:01:03;;;;;;;24.05;6.78;;;9.40;99.90;;;;;;5023707;28;20049;-69
2022/05/15 02:03:29;;;;;;;24.05;6.35;;;9.40;99.90;;;;;;5022485;28;20044;-69
2022/05/15 02:05:55;;;;;;;33.80;7.85;;;9.40;99.90;;;;;;5022128;28;20046;-69
2022/05/15 02:08:21;;;;;;;31.65;7.47;;;9.40;99.90;;;;;;5020893;28;20489;-69
2022/05/15 02:10:47;;;;;;;26.58;7.35;;;9.40;99.90;;;;;;5013549;28;20053;-69
2022/05/15 02:13:13;;;;;;;25.02;7.32;;;9.40;99.90;;;;;;5022434;28;20038;-69
2022/05/15 02:15:38;;;;;;;28.80;7.43;;;9.30;99.90;;;;;;5023612;28;20050;-69
2022/05/15 02:18:04;;;;;;;22.70;6.75;;;9.30;99.90;;;;;;5022143;28;20038;-69
2022/05/15 02:20:33;;;;;;;26.33;6.25;;;9.30;99.90;;;;;;5002200;28;20084;-69
2022/05/15 02:22:59;;;;;;;35.13;8.23;;;9.30;99.90;;;;;;5019083;28;20037;-69
2022/05/15 02:25:27;;;;;;;25.17;7.18;;;9.30;99.90;;;;;;5023037;28;20037;-69
2022/05/15 02:27:54;;;;;;;28.73;6.55;;;9.20;99.90;;;;;;5022727;28;20054;-69
2022/05/15 02:30:20;;;;;;;25.40;7.03;;;9.30;99.90;;;;;;5013086;28;20068;-69
2022/05/15 02:32:47;;;;;;;24.38;7.00;;;9.30;99.90;;;;;;5024006;28;20096;-69
2022/05/15 02:35:12;;;;;;;25.33;6.32;;;9.20;99.90;;;;;;5022540;28;20096;-69
2022/05/15 02:37:41;;;;;;;28.20;7.30;;;9.20;99.90;;;;;;5021966;28;20046;-69
2022/05/15 02:40:09;;;;;;;23.30;6.50;;;9.20;99.90;;;;;;5021412;28;20046;-69
2022/05/15 02:42:34;;;;;;;22.20;7.05;;;9.20;99.90;;;;;;5010668;28;20049;-69
2022/05/15 02:45:00;;;;;;;26.52;7.00;;;9.20;99.90;;;;;;5025744;28;20485;-69
2022/05/15 02:47:26;;;;;;;23.63;6.55;;;9.20;99.90;;;;;;5003466;28;20049;-69
2022/05/15 02:52:55;;;;;;;24.02;6.93;;;9.10;99.90;;;;;;4953819;28;20073;-69
2022/05/15 02:55:23;;;;;;;28.40;7.40;;;9.10;99.90;;;;;;4996469;28;20064;-69
2022/05/15 02:57:49;;;;;;;21.58;6.80;;;9.10;99.90;;;;;;5021329;28;20045;-69
2022/05/15 03:00:16;;;;;;;27.15;7.50;;;9.10;99.90;;;;;;5024992;28;20038;-69
2022/05/15 03:02:42;;;;;;;20.70;7.13;;;9.10;99.90;;;;;;5021060;28;20449;-69
2022/05/15 03:05:10;;;;;;;28.08;7.38;;;9.10;99.90;;;;;;5022971;28;20129;-69
2022/05/15 03:07:37;;;;;;;26.77;7.28;;;9.10;99.90;;;;;;5023784;28;20038;-69
2022/05/15 03:10:03;;;;;;;32.55;7.70;;;9.10;99.90;;;;;;5016760;28;20691;-69
2022/05/15 03:12:29;;;;;;;24.25;8.02;;;9.10;99.90;;;;;;5015215;28;20128;-69
2022/05/15 03:14:55;;;;;;;20.63;7.05;;;9.10;99.90;;;;;;5017974;28;20116;-69
2022/05/15 03:17:21;;;;;;;29.45;7.72;;;9.10;99.90;;;;;;5026897;28;20418;-69
2022/05/15 03:19:46;;;;;;;29.05;8.02;;;9.10;99.90;;;;;;5021833;28;20030;-68
2022/05/15 03:22:12;;;;;;;25.42;7.90;;;9.10;99.90;;;;;;5016788;28;20048;-69
2022/05/15 03:24:38;;;;;;;27.48;7.93;;;9.10;99.90;;;;;;5022317;28;20128;-68
2022/05/15 03:27:04;;;;;;;32.45;7.68;;;9.10;99.90;;;;;;5018162;28;20045;-68
2022/05/15 03:29:30;;;;;;;29.15;7.35;;;9.10;99.90;;;;;;5004401;28;20057;-69
2022/05/15 03:31:57;;;;;;;29.73;8.05;;;9.10;99.90;;;;;;5022698;28;20041;-69
2022/05/15 03:34:23;;;;;;;28.65;7.72;;;9.10;99.90;;;;;;5022684;28;20037;-69
2022/05/15 03:36:51;;;;;;;24.13;7.40;;;9.20;99.90;;;;;;5023514;28;20092;-69
2022/05/15 03:39:19;;;;;;;23.77;7.18;;;9.20;99.90;;;;;;5021798;28;20481;-69
2022/05/15 03:41:46;;;;;;;19.48;7.60;;;9.20;99.90;;;;;;5025817;28;20459;-69
2022/05/15 03:44:12;;;;;;;29.40;8.65;;;9.20;99.90;;;;;;5019996;28;20057;-69
2022/05/15 03:46:39;;;;;;;31.23;8.70;;;9.10;99.90;;;;;;5023258;28;20041;-69
2022/05/15 03:49:06;;;;;;;28.38;7.88;;;9.10;99.90;;;;;;5018906;28;20042;-69
2022/05/15 03:51:32;;;;;;;26.83;8.07;;;9.00;99.90;;;;;;5025264;28;20497;-69
2022/05/15 03:53:59;;;;;;;31.23;8.20;;;9.10;99.90;;;;;;5025931;28;20041;-69
2022/05/15 03:59:12;;;;;;;28.58;8.63;;;9.00;99.90;;;;;;5021061;28;20552;-69
2022/05/15 04:01:38;;;;;;;24.75;8.32;;;8.90;99.90;;;;;;5017816;28;20517;-69
2022/05/15 04:04:04;;;;;;;29.08;7.88;;;9.00;99.90;;;;;;5003321;28;20046;-69
2022/05/15 04:06:30;;;;;;;31.85;9.05;;;9.00;99.90;;;;;;5020962;28;20042;-69
2022/05/15 04:08:55;;;;;;;29.02;7.65;;;9.00;99.90;;;;;;5025434;28;20682;-69
2022/05/15 04:11:21;;;;;;;29.63;8.43;;;9.00;99.90;;;;;;5003152;28;20069;-69
2022/05/15 04:13:47;;;;;;;34.40;8.65;;;9.00;99.90;;;;;;5021086;28;20056;-69
2022/05/15 04:16:13;;;;;;;27.65;8.10;;;9.00;99.90;;;;;;5025228;28;20492;-69
2022/05/15 04:18:40;;;;;;;32.13;8.00;;;9.10;99.90;;;;;;5016634;28;20042;-69
2022/05/15 04:21:05;;;;;;;26.10;7.55;;;9.10;99.90;;;;;;5008961;28;20465;-69
2022/05/15 04:23:31;;;;;;;27.10;7.97;;;9.20;99.90;;;;;;5024145;28;20033;-69
2022/05/15 04:25:57;;;;;;;29.92;7.85;;;9.10;99.90;;;;;;5026423;28;20474;-69
2022/05/15 04:28:22;;;;;;;30.10;8.27;;;9.20;99.90;;;;;;5023487;28;21537;-70
2022/05/15 04:30:48;;;;;;;25.63;7.78;;;9.10;99.90;;;;;;5022784;28;20085;-70
2022/05/15 04:33:14;;;;;;;24.30;7.75;;;9.20;99.90;;;;;;5021249;28;20104;-70
2022/05/15 04:35:40;;;;;;;27.60;8.10;;;9.20;99.90;;;;;;5024791;28;20041;-70
2022/05/15 04:38:08;;;;;;;25.48;7.88;;;9.20;99.90;;;;;;5024744;28;20083;-70
2022/05/15 04:40:34;;;;;;;30.67;8.43;;;9.20;99.90;;;;;;5009130;28;20116;-70
2022/05/15 04:43:00;;;;;;;31.60;8.50;;;9.20;99.90;;;;;;5024280;28;20441;-69
2022/05/15 04:45:26;;;;;;;29.70;8.18;;;9.30;99.90;;;;;;5024910;28;20052;-69
2022/05/15 04:47:51;;;;;;;27.75;7.78;;;9.30;99.90;;;;;;5019056;28;20045;-69
2022/05/15 04:50:19;;;;;;;25.20;7.85;;;9.30;99.90;;;;;;5024443;28;20077;-68
2022/05/15 04:52:45;;;;;;;26.42;7.05;;;9.40;99.90;;;;;;5018940;28;20060;-69
2022/05/15 04:55:11;;;;;;;28.98;7.43;;;9.50;99.90;;;;;;5024906;28;20053;-68
2022/05/15 04:57:38;;;;;;;27.15;8.00;;;9.50;99.90;;;;;;5020016;28;20108;-69
2022/05/15 05:00:11;;;;;;;22.80;7.18;;;9.60;99.90;;;;;;5022845;28;20584;-68
2022/05/15 05:02:36;;;;;;;26.13;7.70;;;9.60;99.90;;;;;;5018441;28;20576;-69
2022/05/15 05:05:03;;;;;;;24.65;7.57;;;9.70;99.90;;;;;;5024805;28;20092;-69
2022/05/15 05:07:29;;;;;;;26.35;8.13;;;9.90;99.90;;;;;;5001070;28;20053;-69
2022/05/15 05:09:55;;;;;;;25.17;7.88;;;10.30;99.90;;;;;;5022566;28;20381;-69
2022/05/15 05:12:21;;;;;;;26.42;7.68;;;10.50;99.90;;;;;;5021084;28;20183;-69
2022/05/15 05:14:47;;;;;;;24.40;7.45;;;10.60;99.90;;;;;;5024712;28;20192;-69
2022/05/15 05:17:13;;;;;;;22.33;6.07;;;10.60;99.90;;;;;;5021636;28;20042;-69
2022/05/15 05:19:39;;;;;;;21.85;7.13;;;10.60;99.90;;;;;;5024664;28;20046;-69
2022/05/15 05:22:05;;;;;;;18.88;6.53;;;10.60;99.90;;;;;;5021272;28;20034;-69
2022/05/15 05:24:31;;;;;;;22.50;7.32;;;10.70;99.90;;;;;;5023133;28;20402;-69
2022/05/15 05:26:57;;;;;;;23.15;6.30;;;10.70;99.90;;;;;;5025859;28;20042;-69
2022/05/15 05:29:23;;;;;;;15.55;6.15;;;10.80;99.90;;;;;;5024130;28;20057;-69
2022/05/15 05:31:49;;;;;;;21.48;5.88;;;10.80;99.90;;;;;;5023292;28;20124;-69
2022/05/15 05:34:15;;;;;;;22.95;7.68;;;10.90;99.90;;;;;;5022150;28;20037;-70
2022/05/15 05:36:41;;;;;;;22.58;6.57;;;11.00;99.90;;;;;;5025876;28;20042;-69
2022/05/15 05:39:07;;;;;;;18.08;5.90;;;11.10;99.90;;;;;;5042108;28;20053;-69
2022/05/15 05:41:32;;;;;;;21.77;6.43;;;11.30;99.90;;;;;;5028414;28;20059;-69
2022/05/15 05:44:00;;;;;;;21.30;6.45;;;11.40;99.90;;;;;;5013185;28;20057;-69
2022/05/15 05:46:27;;;;;;;21.75;5.65;;;11.60;99.90;;;;;;5042606;28;20048;-69
2022/05/15 05:48:53;;;;;;;21.40;5.78;;;11.80;99.90;;;;;;5020924;28;20053;-69
2022/05/15 05:51:20;;;;;;;26.02;6.57;;;11.90;99.90;;;;;;5045269;28;20029;-69
2022/05/15 05:53:47;;;;;;;19.48;5.35;;;12.00;99.90;;;;;;5039686;28;20079;-69
2022/05/15 05:56:12;;;;;;;19.70;5.68;;;12.20;99.90;;;;;;5027717;28;20042;-69
2022/05/15 05:58:38;;;;;;;21.52;5.68;;;12.30;99.90;;;;;;5020513;28;20139;-69
2022/05/15 06:01:04;;;;;;;21.80;5.35;;;12.50;99.90;;;;;;5024389;28;20108;-69
2022/05/15 06:06:15;;;;;;;16.70;4.82;;;12.70;99.90;;;;;;5023336;28;20119;-69
2022/05/15 06:08:42;;;;;;;23.30;5.22;;;12.80;99.90;;;;;;5022682;28;20058;-69
2022/05/15 06:11:09;;;;;;;18.70;5.22;;;13.00;99.90;;;;;;5007821;28;20048;-69
2022/05/15 06:13:35;;;;;;;20.70;4.95;;;13.10;99.90;;;;;;5029133;28;20469;-69
2022/05/15 06:16:01;;;;;;;17.40;5.70;;;13.20;99.90;;;;;;5049193;28;20052;-69
2022/05/15 06:18:27;;;;;;;17.77;4.78;;;13.40;99.90;;;;;;5043528;28;20037;-69
2022/05/15 06:20:53;;;;;;;21.92;4.75;;;13.50;99.90;;;;;;5029780;28;20095;-69
2022/05/15 06:23:19;;;;;;;17.77;4.82;;;13.60;99.90;;;;;;5028108;28;20041;-69
2022/05/15 06:25:45;;;;;;;17.52;5.43;;;13.70;99.90;;;;;;5032315;28;20040;-69
2022/05/15 06:28:11;;;;;;;23.42;5.80;;;13.90;99.90;;;;;;5023714;28;20535;-69
2022/05/15 06:30:37;;;;;;;18.40;4.25;;;14.10;99.90;;;;;;5023355;28;20154;-69
2022/05/15 06:33:04;;;;;;;14.80;4.60;;;14.20;99.90;;;;;;5024314;28;20128;-70
2022/05/15 06:35:30;;;;;;;16.55;4.63;;;14.30;99.90;;;;;;5043527;28;20036;-69
2022/05/15 06:37:59;;;;;;;16.40;4.57;;;14.40;99.90;;;;;;5009909;28;20063;-70
2022/05/15 06:40:25;;;;;;;13.77;4.75;;;14.50;99.90;;;;;;5029441;28;20037;-70
2022/05/15 06:42:52;;;;;;;15.15;4.82;;;14.50;99.90;;;;;;5023945;28;20037;-70
2022/05/15 06:45:17;;;;;;;17.45;5.47;;;14.70;99.90;;;;;;5021847;28;20509;-70
2022/05/15 06:47:43;;;;;;;17.08;4.75;;;14.90;99.90;;;;;;5018464;28;20136;-70
2022/05/15 06:50:10;;;;;;;20.70;5.20;;;15.10;99.90;;;;;;5023477;28;20502;-70
2022/05/15 06:52:37;;;;;;;17.60;4.57;;;15.30;99.90;;;;;;5018490;28;20125;-70
2022/05/15 06:55:22;;;;;;;13.60;4.75;;;15.40;99.90;;;;;;5012812;28;20045;-70
2022/05/15 06:57:50;;;;;;;19.20;4.90;;;15.50;99.90;;;;;;5017544;28;20064;-70
2022/05/15 07:00:22;;;;;;;19.25;4.63;;;15.60;99.90;;;;;;5018938;28;20056;-70
2022/05/15 07:02:49;;;;;;;17.25;4.13;;;15.70;99.90;;;;;;5018891;28;20402;-70
2022/05/15 07:05:20;;;;;;;16.27;4.57;;;15.90;99.90;;;;;;5022832;28;20091;-70
2022/05/15 07:07:46;;;;;;;13.35;4.10;;;16.20;99.80;;;;;;5021521;28;20115;-70
2022/05/15 07:10:12;;;;;;;15.18;4.60;;;16.50;98.90;;;;;;5024779;28;20049;-70
2022/05/15 07:12:38;;;;;;;13.70;4.28;;;16.70;98.90;;;;;;5024660;28;20099;-70
2022/05/15 07:15:05;;;;;;;13.15;3.88;;;16.90;97.90;;;;;;5024744;28;20054;-70
2022/05/15 07:17:32;;;;;;;12.65;3.78;;;17.00;97.10;;;;;;5024356;28;20697;-70
2022/05/15 07:19:57;;;;;;;15.52;4.60;;;17.10;96.30;;;;;;5022665;28;20100;-70
2022/05/15 07:22:23;;;;;;;15.57;3.92;;;17.30;96.20;;;;;;5022445;28;20038;-70
2022/05/15 07:24:49;;;;;;;16.83;4.47;;;17.40;94.60;;;;;;5023157;28;20053;-70
2022/05/15 07:27:15;;;;;;;13.35;3.85;;;17.80;95.10;;;;;;5024007;28;20112;-70
2022/05/15 07:29:41;;;;;;;15.88;4.43;;;18.30;94.70;;;;;;5023674;28;20049;-71
2022/05/15 07:32:09;;;;;;;17.45;4.72;;;18.70;92.60;;;;;;5017698;28;20061;-70
2022/05/15 07:34:37;;;;;;;13.63;4.05;;;19.00;90.90;;;;;;5026202;28;20146;-70
2022/05/15 07:37:04;;;;;;;12.82;4.15;;;19.30;89.30;;;;;;5014196;28;20115;-70
2022/05/15 07:39:31;;;;;;;11.00;3.35;;;19.40;89.30;;;;;;5022056;28;20477;-70
2022/05/15 07:41:57;;;;;;;14.93;4.20;;;19.40;88.20;;;;;;5018730;28;20084;-70
2022/05/15 07:44:23;;;;;;;13.50;3.58;;;19.20;86.70;;;;;;5022254;28;20463;-71
2022/05/15 07:46:49;;;;;;;10.30;3.40;;;19.10;84.60;;;;;;5019992;28;20048;-71
2022/05/15 07:49:15;;;;;;;17.15;4.10;;;18.90;85.20;;;;;;5003066;28;20045;-70
2022/05/15 07:51:44;;;;;;;15.60;4.10;;;18.80;83.60;;;;;;5025568;28;20056;-70
2022/05/15 07:54:11;;;;;;;15.52;6.68;;;19.00;84.10;;;;;;5022737;28;20058;-69
2022/05/15 07:56:37;;;;;;;15.60;3.78;;;19.00;81.90;;;;;;5013849;28;20060;-71
2022/05/15 07:59:03;;;;;;;12.20;3.70;;;19.00;82.00;;;;;;5024919;28;20425;-70
2022/05/15 08:01:29;;;;;;;16.73;3.70;;;19.10;80.60;;;;;;5023309;28;20048;-71
2022/05/15 08:03:56;;;;;;;13.95;3.42;;;19.10;80.50;;;;;;5020262;28;20050;-68
2022/05/15 08:09:08;;;;;;;17.42;4.13;;;19.60;75.00;;;;;;5020329;28;20061;-67
2022/05/15 08:11:36;;;;;;;16.80;3.92;;;20.00;75.30;;;;;;5022528;28;20528;-67
2022/05/15 08:14:05;;;;;;;14.65;4.03;;;20.40;71.90;;;;;;5022364;28;20068;-66
2022/05/15 08:16:35;;;;;;;16.15;3.70;;;20.90;71.30;;;;;;5020704;28;20125;-67
2022/05/15 08:24:33;;;;;;;;;;;21.90;66.20;;;;;;5018007;28;20114;-71
2022/05/15 08:26:59;;;;;;;12.32;3.83;;;22.20;63.00;;;;;;5019841;28;19924;-68
2022/05/15 08:29:25;;;;;;;12.25;4.10;;;22.30;65.30;;;;;;5019836;28;20042;-67
2022/05/15 08:31:51;;;;;;;14.95;3.67;;;22.40;62.20;;;;;;5014256;28;20053;-67
2022/05/15 08:34:17;;;;;;;13.95;3.90;;;22.40;62.40;;;;;;5024838;28;20037;-70
2022/05/15 08:36:44;;;;;;;11.98;3.92;;;22.60;61.30;;;;;;5014865;28;20497;-70
2022/05/15 08:39:12;;;;;;;13.68;4.20;;;22.60;60.10;;;;;;5015435;28;20049;-69
2022/05/15 08:41:48;;;;;;;16.58;4.28;;;22.70;61.70;;;;;;5021274;28;20263;-70
2022/05/15 08:44:19;;;;;;;15.18;4.00;;;22.90;59.00;;;;;;5017525;28;20045;-70
2022/05/15 08:47:14;;;;;;;14.73;4.47;;;22.90;58.40;;;;;;5018246;28;20056;-70
2022/05/15 08:49:53;;;;;;;9.27;3.42;;;23.10;60.90;;;;;;5021180;28;20182;-70
2022/05/15 08:52:52;;;;;;;14.93;4.45;;;23.40;59.20;;;;;;5019613;28;20045;-70
2022/05/15 08:55:24;;;;;;;11.02;3.30;;;23.70;56.50;;;;;;5021611;28;20128;-70
2022/05/15 08:58:01;;;;;;;15.48;4.25;;;23.50;56.00;;;;;;5021634;28;20140;-70
2022/05/15 09:00:46;;;;;;;15.70;4.60;;;23.60;55.80;;;;;;5022491;28;20037;-71
2022/05/15 09:03:18;;;;;;;16.05;4.28;;;23.60;54.60;;;;;;5019094;28;20596;-70
2022/05/15 09:06:05;;;;;;;12.57;4.07;;;23.50;55.80;;;;;;5019628;28;20498;-70
2022/05/15 09:09:05;;;;;;;13.82;4.03;;;23.60;55.70;;;;;;5020484;28;20354;-68
2022/05/15 09:11:50;;;;;;;11.93;3.78;;;23.70;53.80;;;;;;5022562;28;20074;-69
2022/05/15 09:14:39;;;;;;;12.45;3.92;;;23.60;55.50;;;;;;5019415;28;20033;-69
2022/05/15 09:17:19;;;;;;;16.85;4.07;;;23.60;54.20;;;;;;5020981;28;20038;-69
2022/05/15 09:19:50;;;;;;;15.90;4.20;;;23.80;54.60;;;;;;5022012;28;20121;-69
2022/05/15 09:22:18;;;;;;;14.80;4.38;;;24.10;53.20;;;;;;5019676;28;20124;-69
2022/05/15 09:24:52;;;;;;;15.57;4.63;;;24.10;53.90;;;;;;5018171;28;20192;-69
2022/05/15 09:27:23;;;;;;;14.13;3.95;;;24.10;52.60;;;;;;5019911;28;20508;-69
2022/05/15 09:30:00;;;;;;;13.18;3.78;;;24.20;52.90;;;;;;5017098;28;20073;-68
2022/05/15 09:32:29;;;;;;;17.67;4.55;;;24.30;51.10;;;;;;5021380;28;20053;-68
2022/05/15 09:34:58;;;;;;;12.07;4.13;;;24.30;52.20;;;;;;5016172;28;20073;-68
2022/05/15 09:40:39;;;;;;;13.43;3.95;;;24.20;51.60;;;;;;5034936;28;20066;-69
2022/05/15 09:43:31;;;;;;;12.07;3.97;;;24.50;51.20;;;;;;5045422;28;20044;-69
2022/05/15 09:45:58;;;;;;;15.30;4.68;;;24.40;50.80;;;;;;5019375;28;20543;-68
2022/05/15 09:48:32;;;;;;;10.65;3.42;;;24.20;52.80;;;;;;5029035;28;20049;-70
2022/05/15 09:51:07;;;;;;;15.40;4.82;;;24.30;52.20;;;;;;5031153;28;20178;-69
2022/05/15 09:53:50;;;;;;;13.20;3.75;;;24.40;51.60;;;;;;5048222;28;20045;-69
2022/05/15 09:56:18;;;;;;;15.90;4.20;;;24.50;50.80;;;;;;5046375;28;20037;-69
2022/05/15 09:58:51;;;;;;;14.85;4.32;;;24.60;51.70;;;;;;5048635;28;20040;-68
2022/05/15 10:01:33;;;;;;;16.30;4.47;;;24.80;51.20;;;;;;5031591;28;20163;-69
2022/05/15 10:04:00;;;;;;;12.93;3.88;;;24.90;50.60;;;;;;5045558;28;20103;-69
2022/05/15 10:06:28;;;;;;;16.05;4.72;;;25.00;51.10;;;;;;5043440;28;20073;-69
2022/05/15 10:09:22;;;;;;;15.18;4.38;;;25.20;49.00;;;;;;5047221;28;20507;-69
2022/05/15 10:11:52;;;;;;;14.13;4.07;;;25.00;47.10;;;;;;5032798;28;20093;-69
2022/05/15 10:14:47;;;;;;;11.35;3.95;;;24.60;49.10;;;;;;5044485;28;20045;-73
2022/05/15 10:17:14;;;;;;;13.95;4.30;;;24.60;49.30;;;;;;5018439;28;20568;-73
2022/05/15 10:19:50;;;;;;;15.70;4.50;;;24.80;49.50;;;;;;5040939;28;20033;-73
2022/05/15 10:22:39;;;;;;;17.50;4.55;;;24.90;49.10;;;;;;5034750;28;20041;-72
2022/05/15 10:25:46;;;;;;;17.63;4.65;;;24.90;48.40;;;;;;5020825;28;20083;-72
2022/05/15 10:28:24;;;;;;;14.05;4.57;;;25.00;47.70;;;;;;5021599;28;20044;-69
2022/05/15 10:31:14;;;;;;;14.77;4.30;;;25.10;48.10;;;;;;5041213;28;20382;-69
2022/05/15 10:33:46;;;;;;;15.27;4.00;;;25.20;46.70;;;;;;5043156;28;20049;-68
2022/05/15 10:36:24;;;;;;;13.82;3.97;;;25.20;47.80;;;;;;5043318;28;20037;-68
2022/05/15 10:39:16;;;;;;;13.32;3.58;;;25.30;46.40;;;;;;5046618;28;20386;-68
2022/05/15 10:42:03;;;;;;;14.30;3.65;;;25.50;47.20;;;;;;5027319;28;20474;-68
2022/05/15 10:45:08;;;;;;;12.05;4.07;;;25.50;46.30;;;;;;5043909;28;20041;-68
2022/05/15 10:47:59;;;;;;;15.75;4.53;;;25.80;46.90;;;;;;5046990;28;20053;-68
2022/05/15 10:50:43;;;;;;;11.07;3.55;;;25.90;44.90;;;;;;5046109;28;20044;-67
2022/05/15 10:59:42;;;;;;;10.50;3.22;;;26.50;45.10;;;;;;5042719;28;20389;-67
2022/05/15 11:02:29;;;;;;;13.90;3.80;;;26.60;44.20;;;;;;5038684;28;20048;-68
2022/05/15 11:05:06;;;;;;;11.43;3.88;;;26.40;44.20;;;;;;5036635;28;20037;-69
2022/05/15 11:08:09;;;;;;;14.00;4.10;;;26.20;44.30;;;;;;5045710;28;20108;-67
2022/05/15 11:10:44;;;;;;;15.18;4.47;;;25.90;44.20;;;;;;5018781;28;20052;-70
2022/05/15 11:13:28;;;;;;;12.05;3.38;;;25.80;45.00;;;;;;5043894;28;20049;-71
2022/05/15 11:16:06;;;;;;;13.40;3.80;;;25.90;45.90;;;;;;5020861;28;20083;-71
2022/05/15 11:18:53;;;;;;;10.93;3.08;;;26.10;45.50;;;;;;5032367;28;20382;-70
2022/05/15 11:21:51;;;;;;;12.18;3.30;;;26.40;43.90;;;;;;5043689;28;20504;-68
2022/05/15 11:24:59;;;;;;;11.45;3.67;;;26.40;43.50;;;;;;5025586;28;20092;-71
2022/05/15 11:27:53;;;;;;;12.25;3.35;;;26.30;43.10;;;;;;5000903;28;20055;-68
2022/05/15 11:30:41;;;;;;;;;;;26.00;45.20;;;;;;5041171;28;20056;-69
2022/05/15 11:33:08;;;;;;;11.70;4.10;;;26.10;43.80;;;;;;5025985;28;20114;-69
2022/05/15 11:36:01;;;;;;;13.38;3.80;;;25.90;44.00;;;;;;5023343;28;20042;-70
2022/05/15 11:38:29;;;;;;;10.15;3.15;;;25.90;45.40;;;;;;5041414;28;20140;-69
2022/05/15 11:40:55;;;;;;;13.38;4.10;;;25.90;44.80;;;;;;5046260;28;20124;-70
2022/05/15 11:43:28;;;;;;;23.55;6.80;;;26.00;44.70;;;;;;5043452;28;20179;-69
2022/05/15 11:46:02;;;;;;;13.18;3.97;;;26.20;45.00;;;;;;5046106;28;20041;-69
2022/05/15 11:48:31;;;;;;;;;;;26.50;43.80;;;;;;5039629;28;20060;-67
2022/05/15 11:50:59;;;;;;;10.48;3.40;;;26.60;45.90;;;;;;5041347;28;19917;-68
2022/05/15 11:53:32;;;;;;;15.15;3.80;;;27.00;43.20;;;;;;5043311;28;20196;-69
2022/05/15 11:56:14;;;;;;;;;;;27.10;43.80;;;;;;5043418;28;20029;-68
2022/05/15 11:58:41;;;;;;;10.48;3.30;;;27.30;44.00;;;;;;5040520;28;20256;-68
2022/05/15 12:01:38;;;;;;;9.90;3.60;;;27.30;42.30;;;;;;5043096;28;20045;-70
2022/05/15 12:04:29;;;;;;;10.73;3.08;;;27.30;41.60;;;;;;5036069;28;20053;-70
2022/05/15 12:06:57;;;;;;;12.75;3.05;;;26.90;40.70;;;;;;5029295;28;20103;-69
2022/05/15 12:09:26;;;;;;;13.10;3.30;;;26.90;40.40;;;;;;5026305;28;20426;-68
2022/05/15 12:11:57;;;;;;;12.32;3.30;;;26.90;40.10;;;;;;5041511;28;20164;-67
2022/05/15 12:14:26;;;;;;;9.73;3.30;;;27.00;40.10;;;;;;5025489;28;20057;-68
2022/05/15 12:17:15;;;;;;;11.18;3.67;;;27.00;40.20;;;;;;5044315;28;20049;-67
2022/05/15 12:19:44;;;;;;;10.07;3.00;;;27.20;40.70;;;;;;5041871;28;20040;-69
2022/05/15 12:22:13;;;;;;;12.27;3.85;;;27.40;40.80;;;;;;5042049;28;20062;-67
2022/05/15 12:24:43;;;;;;;10.98;2.70;;;27.60;40.90;;;;;;5022056;28;20512;-67
2022/05/15 12:27:18;;;;;;;9.18;2.92;;;27.60;40.30;;;;;;5041938;28;20033;-68
2022/05/15 12:30:09;;;;;;;11.02;2.83;;;27.40;40.20;;;;;;5043768;28;20542;-68
2022/05/15 12:32:50;;;;;;;10.23;3.33;;;27.50;38.20;;;;;;5024996;28;20588;-68
2022/05/15 12:35:24;;;;;;;11.48;2.97;;;27.40;39.50;;;;;;5026508;28;20041;-68
2022/05/15 12:37:59;;;;;;;14.05;4.03;;;27.60;39.60;;;;;;5038044;28;20095;-70
2022/05/15 12:40:34;;;;;;;20.63;3.28;;;27.50;41.30;;;;;;5039935;28;20095;-69
2022/05/15 12:43:01;;;;;;;12.52;3.50;;;27.60;40.50;;;;;;5020033;28;20611;-67
2022/05/15 12:45:27;;;;;;;12.32;3.30;;;27.40;39.60;;;;;;5042360;28;20045;-68
2022/05/15 12:48:00;;;;;;;8.75;2.83;;;27.20;40.30;;;;;;5039524;28;20041;-67
2022/05/15 12:50:26;;;;;;;12.27;3.33;;;27.20;39.70;;;;;;5019193;28;20052;-68
2022/05/15 12:52:56;;;;;;;10.82;2.72;;;27.00;40.00;;;;;;5038700;28;20176;-67
2022/05/15 12:55:27;;;;;;;11.43;3.13;;;27.10;37.90;;;;;;5039109;28;20091;-68
2022/05/15 12:57:55;;;;;;;8.23;2.40;;;26.90;38.10;;;;;;5041180;28;20054;-70
2022/05/15 13:00:30;;;;;;;11.65;3.22;;;26.90;38.20;;;;;;5044941;28;20496;-67
2022/05/15 13:02:59;;;;;;;9.25;2.67;;;26.80;38.10;;;;;;5043967;28;20342;-68
2022/05/15 13:05:32;;;;;;;11.43;3.05;;;26.70;38.20;;;;;;5040346;28;20037;-69
2022/05/15 13:08:00;;;;;;;11.05;2.58;;;26.60;39.10;;;;;;5035011;28;20488;-70
2022/05/15 13:10:26;;;;;;;10.63;2.65;;;26.70;39.70;;;;;;5014727;28;20215;-67
2022/05/15 13:13:00;;;;;;;14.40;3.65;;;26.50;39.90;;;;;;5041082;28;20116;-69
2022/05/15 13:15:28;;;;;;;10.00;2.88;;;26.60;39.90;;;;;;5045182;28;20053;-68
2022/05/15 13:17:57;;;;;;;8.35;2.45;;;26.50;37.90;;;;;;5044010;28;20045;-68
2022/05/15 13:20:26;;;;;;;12.15;2.60;;;26.40;37.90;;;;;;5026021;28;20054;-67
2022/05/15 13:22:54;;;;;;;9.70;2.70;;;26.30;38.10;;;;;;5045778;28;20044;-67
2022/05/15 13:25:41;;;;;;;10.35;3.15;;;26.50;38.10;;;;;;5031261;28;20045;-69